createdAt,value
2023-03-23T15:58:26.397Z,93584.69
2023-03-23T16:00:53.797Z,93596.31
2023-03-23T16:03:27.618Z,93591.13
2023-03-23T16:05:57.546Z,93588.50
2023-03-23T16:08:24.629Z,93595.59
2023-03-23T16:10:51.753Z,93591.44
2023-03-23T16:13:18.671Z,93588.28
2023-03-23T16:15:46.916Z,93601.44
2023-03-23T16:18:18.272Z,93599.75
2023-03-23T16:20:45.671Z,93599.03
2023-03-23T16:23:13.955Z,93608.78
2023-03-23T16:25:41.072Z,93598.41
2023-03-23T16:28:10.304Z,93609.91
2023-03-23T16:30:37.241Z,93602.06
2023-03-23T16:33:04.361Z,93607.19
2023-03-23T16:35:31.723Z,93603.50
2023-03-23T16:38:07.832Z,93603.97
2023-03-23T16:40:40.614Z,93609.91
2023-03-23T16:43:09.152Z,93604.38
2023-03-23T16:45:36.709Z,93612.72
2023-03-23T16:48:04.240Z,93608.56
2023-03-23T16:50:31.684Z,93610.81
2023-03-23T16:52:59.133Z,93605.19
2023-03-23T16:55:27.118Z,93603.16
2023-03-23T16:58:05.414Z,93602.25
2023-03-23T17:00:36.475Z,93608.28
2023-03-23T17:03:03.630Z,93609.34
2023-03-23T17:05:30.857Z,93615.69
2023-03-23T17:07:57.992Z,93606.94
2023-03-23T17:10:27.459Z,93608.56
2023-03-23T17:12:56.009Z,93611.13
2023-03-23T17:15:26.579Z,93615.66
2023-03-23T17:17:54.901Z,93620.63
2023-03-23T17:20:22.139Z,93615.50
2023-03-23T17:22:49.456Z,93622.25
2023-03-23T17:25:16.596Z,93620.75
2023-03-23T17:27:43.553Z,93622.53
2023-03-23T17:30:12.792Z,93627.00
2023-03-23T17:32:39.950Z,93625.72
2023-03-23T17:35:07.625Z,93622.81
2023-03-23T17:37:34.916Z,93627.78
2023-03-23T17:40:02.151Z,93628.91
2023-03-23T17:42:29.925Z,93631.94
2023-03-23T17:44:56.910Z,93640.59
2023-03-23T17:47:25.395Z,93642.84
2023-03-23T17:49:52.388Z,93642.19
2023-03-23T17:52:19.477Z,93647.63
2023-03-23T17:54:46.436Z,93647.56
2023-03-23T17:57:13.457Z,93650.63
2023-03-23T17:59:40.502Z,93661.00
2023-03-23T18:02:08.524Z,93665.31
2023-03-23T18:04:36.932Z,93661.59
2023-03-23T18:07:03.943Z,93669.78
2023-03-23T18:09:31.098Z,93672.53
2023-03-23T18:11:58.159Z,93677.94
2023-03-23T18:14:25.482Z,93671.13
2023-03-23T18:16:53.261Z,93671.00
2023-03-23T18:19:20.324Z,93668.44
2023-03-23T18:21:48.645Z,93672.56
2023-03-23T18:24:15.775Z,93676.84
2023-03-23T18:26:42.837Z,93677.66
2023-03-23T18:29:09.799Z,93670.44
2023-03-23T18:31:40.124Z,93677.06
2023-03-23T18:34:07.599Z,93676.41
2023-03-23T18:36:34.728Z,93679.66
2023-03-23T18:39:04.027Z,93682.44
2023-03-23T18:41:31.192Z,93671.22
2023-03-23T18:43:58.209Z,93673.94
2023-03-23T18:46:25.808Z,93685.19
2023-03-23T18:48:52.943Z,93674.72
2023-03-23T18:51:19.859Z,93690.16
2023-03-23T18:53:46.852Z,93685.63
2023-03-23T18:56:16.693Z,93678.47
2023-03-23T18:58:44.183Z,93685.00
2023-03-23T19:01:13.264Z,93693.78
2023-03-23T19:03:40.581Z,93697.00
2023-03-23T19:06:10.600Z,93690.50
2023-03-23T19:08:37.576Z,93693.94
2023-03-23T19:11:05.315Z,93699.94
2023-03-23T19:13:38.821Z,93698.47
2023-03-23T19:16:07.584Z,93700.47
2023-03-23T19:18:34.627Z,93707.66
2023-03-23T19:23:31.805Z,93706.88
2023-03-23T19:25:58.986Z,93712.19
2023-03-23T19:30:58.401Z,93713.75
2023-03-23T19:33:26.315Z,93713.06
2023-03-23T19:36:06.156Z,93716.34
2023-03-23T19:38:36.167Z,93726.69
2023-03-23T19:41:04.885Z,93728.91
2023-03-23T19:46:01.807Z,93727.00
2023-03-23T19:48:31.106Z,93736.44
2023-03-23T19:50:58.686Z,93738.56
2023-03-23T19:53:26.706Z,93732.88
2023-03-23T19:55:53.785Z,93739.09
2023-03-23T19:58:21.287Z,93743.66
2023-03-23T20:00:48.672Z,93745.69
2023-03-23T20:03:17.863Z,93759.66
2023-03-23T20:05:45.315Z,93765.63
2023-03-23T20:08:12.781Z,93764.03
2023-03-23T20:10:41.186Z,93769.16
2023-03-23T20:13:08.382Z,93772.50
2023-03-23T20:15:35.370Z,93769.97
2023-03-23T20:18:02.583Z,93773.59
2023-03-23T20:20:31.362Z,93770.25
2023-03-23T20:22:59.096Z,93768.13
2023-03-23T20:25:26.207Z,93759.94
2023-03-23T20:27:55.022Z,93760.47
2023-03-23T20:30:22.143Z,93760.47
2023-03-23T20:32:49.345Z,93762.81
2023-03-23T20:35:16.346Z,93759.44
2023-03-23T20:37:44.850Z,93756.44
2023-03-23T20:40:14.380Z,93753.78
2023-03-23T20:42:43.956Z,93751.78
2023-03-23T20:45:11.992Z,93759.72
2023-03-23T20:47:40.065Z,93749.72
2023-03-23T20:50:08.916Z,93759.06
2023-03-23T20:52:36.954Z,93753.88
2023-03-23T20:55:05.988Z,93755.13
2023-03-23T20:57:34.137Z,93754.72
2023-03-23T21:00:02.507Z,93751.78
2023-03-23T21:02:30.056Z,93747.88
2023-03-23T21:04:58.241Z,93748.56
2023-03-23T21:07:27.458Z,93753.28
2023-03-23T21:09:54.388Z,93756.50
2023-03-23T21:12:22.892Z,93758.66
2023-03-23T21:14:49.875Z,93767.94
2023-03-23T21:17:16.900Z,93760.28
2023-03-23T21:19:44.034Z,93766.84
2023-03-23T21:22:10.911Z,93760.53
2023-03-23T21:24:38.596Z,93761.47
2023-03-23T21:27:05.565Z,93764.31
2023-03-23T21:29:33.992Z,93766.97
2023-03-23T21:32:08.277Z,93763.38
2023-03-23T21:34:36.836Z,93764.59
2023-03-23T21:37:03.976Z,93760.94
2023-03-23T21:39:30.924Z,93764.31
2023-03-23T21:41:59.567Z,93766.44
2023-03-23T21:44:26.471Z,93765.66
2023-03-23T21:46:54.846Z,93763.09
2023-03-23T21:49:21.928Z,93767.53
2023-03-23T21:51:49.544Z,93761.19
2023-03-23T21:54:16.471Z,93754.19
2023-03-23T21:56:43.514Z,93759.53
2023-03-23T21:59:10.757Z,93763.53
2023-03-23T22:01:37.957Z,93769.00
2023-03-23T22:04:07.084Z,93767.69
2023-03-23T22:06:34.588Z,93772.25
2023-03-23T22:09:02.183Z,93768.34
2023-03-23T22:11:31.765Z,93765.22
2023-03-23T22:13:58.933Z,93761.44
2023-03-23T22:16:26.582Z,93762.22
2023-03-23T22:18:54.188Z,93765.66
2023-03-23T22:21:25.956Z,93758.44
2023-03-23T22:23:53.467Z,93768.19
2023-03-23T22:26:20.563Z,93762.75
2023-03-23T22:28:49.560Z,93760.47
2023-03-23T22:31:18.762Z,93757.69
2023-03-23T22:33:47.420Z,93765.84
2023-03-23T22:36:14.950Z,93770.00
2023-03-23T22:38:44.894Z,93775.34
2023-03-23T22:41:16.642Z,93781.94
2023-03-23T22:43:43.599Z,93770.94
2023-03-23T22:46:10.787Z,93781.94
2023-03-23T22:48:37.858Z,93785.69
2023-03-23T22:51:05.258Z,93780.88
2023-03-23T22:53:32.203Z,93782.91
2023-03-23T22:56:01.481Z,93776.88
2023-03-23T22:58:28.901Z,93774.19
2023-03-23T23:00:58.579Z,93780.34
2023-03-23T23:03:26.710Z,93786.50
2023-03-23T23:05:55.531Z,93784.72
2023-03-23T23:08:22.657Z,93785.66
2023-03-23T23:10:52.423Z,93779.50
2023-03-23T23:13:20.997Z,93779.00
2023-03-23T23:15:49.625Z,93781.06
2023-03-23T23:18:18.477Z,93778.06
2023-03-23T23:20:48.070Z,93773.22
2023-03-23T23:23:15.017Z,93778.16
2023-03-23T23:25:42.416Z,93777.59
2023-03-23T23:28:09.413Z,93775.97
2023-03-23T23:30:38.115Z,93771.53
2023-03-23T23:33:06.341Z,93778.59
2023-03-23T23:35:34.779Z,93777.28
2023-03-23T23:38:01.729Z,93770.84
2023-03-23T23:40:28.745Z,93764.94
2023-03-23T23:42:55.801Z,93769.78
2023-03-23T23:45:23.175Z,93765.63
2023-03-23T23:47:51.573Z,93763.44
2023-03-23T23:50:18.804Z,93756.41
2023-03-23T23:52:46.576Z,93753.31
2023-03-23T23:55:15.974Z,93752.13
2023-03-23T23:57:43.186Z,93748.22
